createdAt,value
2023-10-10T00:00:22.844Z,14.15
2023-10-10T00:03:28.912Z,14.11
2023-10-10T00:06:31.430Z,14.09
2023-10-10T00:09:34.346Z,14.10
2023-10-10T00:12:37.926Z,14.09
2023-10-10T00:15:51.384Z,14.10
2023-10-10T00:18:57.427Z,14.11
2023-10-10T00:22:03.008Z,14.03
2023-10-10T00:25:13.470Z,14.13
2023-10-10T00:28:19.587Z,14.12
2023-10-10T00:31:27.553Z,14.11
2023-10-10T00:34:30.356Z,14.11
2023-10-10T00:37:35.833Z,14.14
2023-10-10T00:40:40.979Z,14.16
2023-10-10T00:43:43.880Z,14.14
2023-10-10T00:46:52.924Z,14.19
2023-10-10T00:49:56.085Z,14.18
2023-10-10T00:53:01.464Z,14.18
2023-10-10T00:56:08.045Z,14.19
2023-10-10T00:59:11.922Z,14.19
2023-10-10T01:02:17.955Z,14.18
2023-10-10T01:05:34.061Z,14.19
2023-10-10T01:09:05.168Z,14.19
2023-10-10T01:12:08.149Z,14.19
2023-10-10T01:15:35.755Z,14.19
2023-10-10T01:18:52.546Z,14.21
2023-10-10T01:21:59.202Z,14.21
2023-10-10T01:25:07.008Z,14.19
2023-10-10T01:28:15.119Z,14.18
2023-10-10T01:31:19.447Z,14.19
2023-10-10T01:34:45.697Z,14.24
2023-10-10T01:37:56.182Z,14.23
2023-10-10T01:41:05.260Z,14.24
2023-10-10T01:44:13.172Z,14.24
2023-10-10T01:47:27.538Z,14.25
2023-10-10T01:50:34.767Z,14.27
2023-10-10T01:53:41.460Z,14.31
2023-10-10T01:56:44.236Z,14.33
2023-10-10T01:59:46.660Z,14.37
2023-10-10T02:02:54.535Z,14.36
2023-10-10T02:05:57.469Z,14.36
2023-10-10T02:09:13.276Z,14.34
2023-10-10T02:12:23.225Z,14.32
2023-10-10T02:15:28.142Z,14.30
2023-10-10T02:18:49.933Z,14.29
2023-10-10T02:22:04.653Z,14.28
2023-10-10T02:25:26.438Z,14.25
2023-10-10T02:28:47.337Z,14.25
2023-10-10T02:32:07.441Z,14.24
2023-10-10T02:35:27.780Z,14.24
2023-10-10T02:38:41.371Z,14.22
2023-10-10T02:41:50.058Z,14.20
2023-10-10T02:44:58.559Z,14.18
2023-10-10T02:48:08.159Z,14.19
2023-10-10T02:51:16.876Z,14.17
2023-10-10T02:54:21.897Z,14.15
2023-10-10T02:57:27.454Z,14.15
2023-10-10T03:00:29.936Z,14.11
2023-10-10T03:03:40.965Z,14.13
2023-10-10T03:06:45.534Z,14.16
2023-10-10T03:10:13.324Z,14.13
2023-10-10T03:13:33.986Z,14.14
2023-10-10T03:16:45.415Z,14.14
2023-10-10T03:19:51.851Z,14.14
2023-10-10T03:23:06.794Z,14.09
2023-10-10T03:26:19.852Z,14.05
2023-10-10T03:29:28.361Z,14.00
2023-10-10T03:32:35.575Z,13.95
2023-10-10T03:36:00.366Z,13.96
2023-10-10T03:39:21.780Z,13.94
2023-10-10T03:42:46.595Z,13.92
2023-10-10T03:46:07.697Z,13.91
2023-10-10T03:49:28.802Z,13.90
2023-10-10T03:52:49.721Z,13.88
2023-10-10T03:56:11.395Z,13.87
2023-10-10T03:59:39.805Z,13.85
2023-10-10T04:03:01.090Z,13.80
2023-10-10T04:06:26.413Z,13.76
2023-10-10T04:09:48.590Z,13.64
2023-10-10T04:13:10.127Z,13.51
2023-10-10T04:16:31.095Z,13.52
2023-10-10T04:19:52.295Z,13.50
2023-10-10T04:23:34.134Z,13.53
2023-10-10T04:26:55.388Z,13.56
2023-10-10T04:30:16.234Z,13.56
2023-10-10T04:33:37.657Z,13.54
2023-10-10T04:36:58.555Z,13.42
2023-10-10T04:40:19.629Z,13.46
2023-10-10T04:43:54.884Z,13.41
2023-10-10T04:47:15.951Z,13.33
2023-10-10T04:50:36.975Z,13.23
2023-10-10T04:53:58.083Z,13.12
2023-10-10T04:57:19.141Z,12.96
2023-10-10T05:00:40.187Z,12.82
2023-10-10T05:04:03.835Z,12.72
2023-10-10T05:07:25.341Z,12.66
2023-10-10T05:10:46.454Z,12.53
2023-10-10T05:14:10.186Z,12.58
2023-10-10T05:17:31.584Z,12.45
2023-10-10T05:20:53.283Z,12.44
2023-10-10T05:23:55.665Z,12.48
2023-10-10T05:26:58.373Z,12.72
2023-10-10T05:30:01.712Z,12.53
2023-10-10T05:33:05.314Z,12.45
2023-10-10T05:36:08.028Z,12.44
2023-10-10T05:39:15.856Z,12.43
2023-10-10T05:42:21.956Z,12.40
2023-10-10T05:45:24.703Z,12.47
2023-10-10T05:48:27.846Z,12.49
2023-10-10T05:51:31.056Z,12.43
2023-10-10T05:54:33.402Z,12.49
2023-10-10T05:57:37.662Z,12.57
2023-10-10T06:00:42.994Z,12.57
2023-10-10T06:03:46.390Z,12.67
2023-10-10T06:06:48.880Z,12.79
2023-10-10T06:09:53.036Z,12.90
2023-10-10T06:12:58.350Z,13.02
2023-10-10T06:16:14.288Z,13.25
2023-10-10T06:19:22.464Z,13.44
2023-10-10T06:22:25.958Z,13.74
2023-10-10T06:25:30.279Z,13.94
2023-10-10T06:28:46.338Z,14.20
2023-10-10T06:31:50.432Z,15.34
2023-10-10T06:35:13.725Z,15.85
2023-10-10T06:38:16.251Z,15.61
2023-10-10T06:41:23.566Z,15.95
2023-10-10T06:44:36.738Z,16.16
2023-10-10T06:47:46.169Z,15.77
2023-10-10T06:50:51.399Z,15.55
2023-10-10T06:53:56.161Z,15.68
2023-10-10T06:57:01.706Z,16.33
2023-10-10T07:00:29.387Z,16.80
2023-10-10T07:03:34.792Z,16.38
2023-10-10T07:06:37.525Z,16.35
2023-10-10T07:09:43.685Z,17.26
2023-10-10T07:12:48.554Z,17.77
2023-10-10T07:15:54.288Z,17.44
2023-10-10T07:18:57.454Z,16.97
2023-10-10T07:22:01.481Z,16.66
2023-10-10T07:25:09.210Z,16.43
2023-10-10T07:28:15.345Z,16.12
2023-10-10T07:31:24.929Z,16.30
2023-10-10T07:34:36.309Z,16.37
2023-10-10T07:37:39.893Z,16.37
2023-10-10T07:40:42.522Z,16.53
2023-10-10T07:43:50.742Z,16.86
2023-10-10T07:47:28.801Z,16.91
2023-10-10T07:50:48.796Z,16.89
2023-10-10T07:54:01.159Z,16.49
2023-10-10T07:57:08.580Z,16.53
2023-10-10T08:00:18.467Z,16.63
2023-10-10T08:03:21.408Z,16.74
2023-10-10T08:06:24.662Z,17.25
2023-10-10T08:09:30.938Z,17.74
2023-10-10T08:12:33.392Z,18.05
2023-10-10T08:15:36.624Z,18.04
2023-10-10T08:18:47.629Z,17.78
2023-10-10T08:21:51.048Z,18.13
2023-10-10T08:24:53.764Z,19.94
2023-10-10T08:27:57.419Z,21.86
2023-10-10T08:31:01.209Z,22.70
2023-10-10T08:34:05.120Z,21.71
2023-10-10T08:37:10.180Z,20.54
2023-10-10T08:40:20.990Z,19.87
2023-10-10T08:43:27.500Z,19.20
2023-10-10T08:46:33.514Z,18.89
2023-10-10T08:49:36.629Z,18.56
2023-10-10T08:52:41.245Z,18.24
2023-10-10T08:55:43.872Z,18.11
2023-10-10T08:58:47.713Z,18.00
2023-10-10T09:01:50.230Z,17.85
2023-10-10T09:04:52.890Z,17.82
2023-10-10T09:07:56.747Z,17.67
2023-10-10T09:10:59.947Z,17.65
2023-10-10T09:14:04.569Z,17.54
2023-10-10T09:17:10.067Z,17.49
2023-10-10T09:20:32.786Z,17.51
2023-10-10T09:23:43.823Z,17.44
2023-10-10T09:26:52.192Z,17.47
2023-10-10T09:29:57.433Z,17.36
2023-10-10T09:33:14.090Z,17.28
2023-10-10T09:36:27.889Z,17.15
2023-10-10T09:39:38.300Z,17.03
2023-10-10T09:42:54.112Z,17.08
2023-10-10T09:46:12.207Z,17.26
2023-10-10T09:49:30.292Z,17.50
2023-10-10T09:52:51.700Z,17.60
2023-10-10T09:55:55.014Z,17.44
2023-10-10T09:59:00.543Z,17.57
2023-10-10T10:02:07.046Z,17.54
2023-10-10T10:05:18.457Z,17.65
2023-10-10T10:08:24.806Z,18.04
2023-10-10T10:11:34.917Z,18.49
2023-10-10T10:14:48.481Z,18.99
2023-10-10T10:18:15.301Z,19.36
2023-10-10T10:21:20.196Z,19.59
2023-10-10T10:24:34.196Z,19.65
2023-10-10T10:27:40.350Z,19.91
2023-10-10T10:30:51.632Z,20.65
2023-10-10T10:34:24.355Z,21.70
2023-10-10T10:37:29.425Z,22.61
2023-10-10T10:40:42.287Z,21.10
2023-10-10T10:43:52.205Z,21.52
2023-10-10T10:46:57.863Z,22.64
2023-10-10T10:50:01.998Z,22.08
2023-10-10T10:53:09.769Z,23.11
2023-10-10T10:56:19.184Z,23.32
2023-10-10T10:59:21.875Z,22.99
2023-10-10T11:02:31.578Z,22.66
2023-10-10T11:05:34.294Z,23.80
2023-10-10T11:09:07.165Z,23.65
2023-10-10T11:12:10.415Z,22.63
2023-10-10T11:15:13.400Z,22.78
2023-10-10T11:18:25.285Z,22.60
2023-10-10T11:21:28.948Z,21.84
2023-10-10T11:24:33.124Z,21.41
2023-10-10T11:27:45.597Z,21.19
2023-10-10T11:30:48.675Z,21.01
2023-10-10T11:34:10.881Z,21.19
2023-10-10T11:37:33.706Z,20.84
2023-10-10T11:40:37.915Z,20.83
2023-10-10T11:44:02.876Z,20.43
2023-10-10T11:47:09.010Z,20.29
2023-10-10T11:50:14.876Z,20.01
2023-10-10T11:53:24.975Z,20.13
2023-10-10T11:56:27.970Z,20.12
2023-10-10T11:59:33.836Z,19.97
2023-10-10T12:02:41.239Z,20.15
2023-10-10T12:05:49.941Z,20.28
2023-10-10T12:08:54.499Z,20.34
2023-10-10T12:12:00.854Z,20.30
2023-10-10T12:15:04.036Z,20.11
2023-10-10T12:18:12.912Z,20.10
2023-10-10T12:21:16.331Z,20.15
2023-10-10T12:24:19.151Z,20.01
2023-10-10T12:27:21.821Z,19.98
2023-10-10T12:30:26.342Z,20.16
2023-10-10T12:33:28.938Z,20.22
2023-10-10T12:36:33.856Z,20.20
2023-10-10T12:39:38.286Z,20.25
2023-10-10T12:42:40.984Z,20.22
2023-10-10T12:45:43.418Z,20.13
2023-10-10T12:48:47.564Z,20.02
2023-10-10T12:51:50.044Z,19.86
2023-10-10T12:54:59.666Z,19.57
2023-10-10T12:58:10.567Z,19.46
2023-10-10T13:01:23.829Z,19.38
2023-10-10T13:04:37.610Z,19.41
2023-10-10T13:07:42.538Z,19.36
2023-10-10T13:10:45.826Z,19.36
2023-10-10T13:13:52.667Z,19.38
2023-10-10T13:17:03.004Z,19.38
2023-10-10T13:20:06.572Z,19.41
2023-10-10T13:23:08.997Z,19.43
2023-10-10T13:26:11.789Z,19.36
2023-10-10T13:29:18.126Z,19.44
2023-10-10T13:32:21.758Z,19.44
2023-10-10T13:35:24.558Z,19.43
2023-10-10T13:38:27.311Z,19.41
2023-10-10T13:41:29.760Z,19.42
2023-10-10T13:44:34.930Z,19.48
2023-10-10T13:47:41.840Z,19.52
2023-10-10T13:50:46.163Z,19.56
2023-10-10T13:53:49.081Z,19.68
2023-10-10T13:56:51.904Z,19.77
2023-10-10T13:59:55.717Z,19.78
2023-10-10T14:03:06.874Z,19.77
2023-10-10T14:06:11.579Z,19.83
2023-10-10T14:09:25.619Z,19.82
2023-10-10T14:12:33.553Z,19.74
2023-10-10T14:15:36.355Z,19.67
2023-10-10T14:18:48.214Z,19.55
2023-10-10T14:21:53.818Z,19.43
2023-10-10T14:24:56.552Z,19.28
2023-10-10T14:27:59.459Z,19.21
2023-10-10T14:31:02.199Z,19.11
2023-10-10T14:34:06.689Z,18.99
2023-10-10T14:37:20.390Z,18.96
2023-10-10T14:40:29.684Z,19.01
2023-10-10T14:43:34.244Z,19.02
2023-10-10T14:46:36.677Z,18.99
2023-10-10T14:49:40.104Z,19.00
2023-10-10T14:52:48.691Z,18.90
2023-10-10T14:55:54.889Z,18.92
2023-10-10T14:58:57.333Z,18.89
2023-10-10T15:02:05.529Z,18.83
2023-10-10T15:05:12.394Z,18.77
2023-10-10T15:08:15.524Z,18.78
2023-10-10T15:11:17.873Z,18.73
2023-10-10T15:14:20.833Z,18.69
2023-10-10T15:17:23.369Z,18.62
2023-10-10T15:20:28.172Z,18.57
2023-10-10T15:23:30.619Z,18.53
2023-10-10T15:26:35.849Z,18.52
2023-10-10T15:29:43.178Z,18.48
2023-10-10T15:32:49.179Z,18.45
2023-10-10T15:35:53.752Z,18.43
2023-10-10T15:38:56.767Z,18.42
2023-10-10T15:42:00.514Z,18.39
2023-10-10T15:45:06.182Z,18.37
2023-10-10T15:48:22.912Z,18.34
2023-10-10T15:51:27.067Z,18.28
2023-10-10T15:54:34.806Z,18.21
2023-10-10T15:57:38.207Z,18.12
2023-10-10T16:00:40.738Z,18.06
2023-10-10T16:03:49.432Z,17.98
2023-10-10T16:06:51.968Z,17.91
2023-10-10T16:09:54.658Z,17.83
2023-10-10T16:12:56.996Z,17.81
2023-10-10T16:15:59.712Z,17.82
2023-10-10T16:19:05.573Z,17.81
2023-10-10T16:22:08.269Z,17.81
2023-10-10T16:25:14.518Z,17.80
2023-10-10T16:28:20.581Z,17.78
2023-10-10T16:31:33.369Z,17.69
2023-10-10T16:34:41.456Z,17.66
2023-10-10T16:37:45.547Z,17.54
2023-10-10T16:40:51.229Z,17.36
2023-10-10T16:44:00.934Z,17.36
2023-10-10T16:47:05.027Z,17.23
2023-10-10T16:50:08.017Z,17.06
2023-10-10T16:53:12.845Z,16.91
2023-10-10T16:56:15.770Z,16.72
2023-10-10T16:59:18.691Z,16.58
2023-10-10T17:02:21.426Z,16.46
2023-10-10T17:05:24.994Z,16.33
2023-10-10T17:08:27.517Z,16.25
2023-10-10T17:11:30.309Z,16.12
2023-10-10T17:14:37.726Z,16.03
2023-10-10T17:17:45.669Z,15.97
2023-10-10T17:20:48.575Z,15.87
2023-10-10T17:23:52.423Z,15.77
2023-10-10T17:26:55.249Z,15.74
2023-10-10T17:29:58.693Z,15.59
2023-10-10T17:33:02.886Z,15.51
2023-10-10T17:36:08.749Z,15.43
2023-10-10T17:39:16.234Z,15.39
2023-10-10T17:42:23.850Z,15.47
2023-10-10T17:45:26.570Z,15.50
2023-10-10T17:48:32.261Z,15.59
2023-10-10T17:51:35.301Z,15.64
2023-10-10T17:54:41.745Z,15.60
2023-10-10T17:57:45.087Z,15.52
2023-10-10T18:00:53.896Z,15.40
2023-10-10T18:03:57.185Z,15.29
2023-10-10T18:07:01.265Z,15.18
2023-10-10T18:10:09.471Z,15.10
2023-10-10T18:13:11.960Z,14.95
2023-10-10T18:16:15.686Z,14.88
2023-10-10T18:19:18.901Z,14.83
2023-10-10T18:22:22.188Z,14.71
2023-10-10T18:25:25.080Z,14.70
2023-10-10T18:28:31.371Z,14.72
2023-10-10T18:31:39.643Z,14.70
2023-10-10T18:34:43.266Z,14.61
2023-10-10T18:37:49.006Z,14.53
2023-10-10T18:40:54.729Z,14.51
2023-10-10T18:43:58.516Z,14.55
2023-10-10T18:47:02.914Z,14.54
2023-10-10T18:50:06.677Z,14.50
2023-10-10T18:53:09.540Z,14.39
2023-10-10T18:56:12.425Z,14.29
2023-10-10T18:59:15.444Z,14.16
2023-10-10T19:02:18.145Z,14.03
2023-10-10T19:05:21.153Z,14.05
2023-10-10T19:08:23.959Z,13.98
2023-10-10T19:11:28.222Z,13.82
2023-10-10T19:14:35.243Z,13.80
2023-10-10T19:17:41.114Z,13.69
2023-10-10T19:20:44.510Z,13.67
2023-10-10T19:23:53.549Z,13.52
2023-10-10T19:26:56.205Z,13.51
2023-10-10T19:29:59.368Z,13.51
2023-10-10T19:33:02.355Z,13.49
2023-10-10T19:36:09.116Z,13.58
2023-10-10T19:39:12.049Z,13.49
2023-10-10T19:42:18.786Z,13.53
2023-10-10T19:45:27.544Z,13.46
2023-10-10T19:48:30.526Z,13.35
2023-10-10T19:51:33.164Z,13.34
2023-10-10T19:54:36.078Z,13.25
2023-10-10T19:57:38.532Z,13.30
2023-10-10T20:00:44.430Z,13.21
2023-10-10T20:03:47.869Z,13.20
2023-10-10T20:06:51.596Z,13.14
2023-10-10T20:09:54.278Z,13.08
2023-10-10T20:12:56.668Z,13.11
2023-10-10T20:15:59.435Z,12.96
2023-10-10T20:19:01.994Z,12.98
2023-10-10T20:22:05.212Z,12.90
2023-10-10T20:25:07.665Z,12.88
2023-10-10T20:28:11.029Z,12.96
2023-10-10T20:31:14.485Z,12.85
2023-10-10T20:34:17.306Z,12.73
2023-10-10T20:37:21.480Z,12.72
2023-10-10T20:40:25.741Z,12.68
2023-10-10T20:43:28.139Z,12.53
2023-10-10T20:46:32.587Z,12.53
2023-10-10T20:49:37.787Z,12.54
2023-10-10T20:52:41.813Z,12.46
2023-10-10T20:55:47.421Z,12.43
2023-10-10T20:58:51.849Z,12.37
2023-10-10T21:01:54.265Z,12.33
2023-10-10T21:04:56.926Z,12.30
2023-10-10T21:07:59.669Z,12.18
2023-10-10T21:11:08.526Z,12.16
2023-10-10T21:14:11.784Z,12.15
2023-10-10T21:17:17.542Z,12.23
2023-10-10T21:20:31.887Z,12.19
2023-10-10T21:23:34.941Z,12.28
2023-10-10T21:26:37.355Z,12.37
2023-10-10T21:29:40.309Z,12.42
2023-10-10T21:32:42.869Z,12.45
2023-10-10T21:35:45.853Z,12.44
2023-10-10T21:38:48.413Z,12.44
2023-10-10T21:41:51.166Z,12.43
2023-10-10T21:44:53.613Z,12.44
2023-10-10T21:47:56.581Z,12.42
2023-10-10T21:51:00.746Z,12.41
2023-10-10T21:54:04.496Z,12.36
2023-10-10T21:57:06.970Z,12.46
2023-10-10T22:00:21.063Z,12.47
2023-10-10T22:03:24.183Z,12.42
2023-10-10T22:06:29.004Z,12.43
2023-10-10T22:09:33.730Z,12.50
2023-10-10T22:12:37.395Z,12.54
2023-10-10T22:15:40.134Z,12.52
2023-10-10T22:18:43.354Z,12.51
2023-10-10T22:21:46.122Z,12.45
2023-10-10T22:24:48.501Z,12.39
2023-10-10T22:27:52.869Z,12.38
2023-10-10T22:30:55.838Z,12.41
2023-10-10T22:34:01.571Z,12.35
2023-10-10T22:37:08.640Z,12.34
2023-10-10T22:40:12.944Z,12.36
2023-10-10T22:43:16.681Z,12.33
2023-10-10T22:46:20.962Z,12.34
2023-10-10T22:49:23.468Z,12.26
2023-10-10T22:52:26.093Z,12.26
2023-10-10T22:55:29.860Z,12.23
2023-10-10T22:58:32.919Z,12.20
2023-10-10T23:01:35.367Z,12.19
2023-10-10T23:04:38.343Z,12.20
2023-10-10T23:07:46.222Z,12.18
2023-10-10T23:10:49.926Z,12.20
2023-10-10T23:13:53.223Z,12.20
2023-10-10T23:16:56.733Z,12.23
2023-10-10T23:20:00.267Z,12.25
2023-10-10T23:23:04.062Z,12.30
2023-10-10T23:26:06.590Z,12.34
2023-10-10T23:29:10.159Z,12.34
2023-10-10T23:32:13.195Z,12.34
2023-10-10T23:35:16.266Z,12.23
2023-10-10T23:38:20.811Z,12.32
2023-10-10T23:41:23.733Z,12.30
2023-10-10T23:44:28.716Z,12.29
2023-10-10T23:47:31.496Z,12.30
2023-10-10T23:50:40.109Z,12.30
2023-10-10T23:53:42.796Z,12.32
2023-10-10T23:56:50.019Z,12.33
2023-10-10T23:59:53.116Z,12.32
